sensor_id;sensor_type;location;lat;lon;timestamp;temperature;humidity
37242;DHT22;23135;51.078;12.108;2023-07-20T00:01:51;15.10;99.90
37242;DHT22;23135;51.078;12.108;2023-07-20T00:04:17;15.10;99.90
37242;DHT22;23135;51.078;12.108;2023-07-20T00:06:42;15.10;99.90
37242;DHT22;23135;51.078;12.108;2023-07-20T00:09:08;15.00;99.90
37242;DHT22;23135;51.078;12.108;2023-07-20T00:11:36;15.00;99.90
37242;DHT22;23135;51.078;12.108;2023-07-20T00:14:05;15.00;99.90
37242;DHT22;23135;51.078;12.108;2023-07-20T00:16:31;15.00;99.90
37242;DHT22;23135;51.078;12.108;2023-07-20T00:18:57;15.00;99.90
37242;DHT22;23135;51.078;12.108;2023-07-20T00:21:22;15.00;99.90
37242;DHT22;23135;51.078;12.108;2023-07-20T00:23:48;14.90;99.90
37242;DHT22;23135;51.078;12.108;2023-07-20T00:26:13;14.90;99.90
37242;DHT22;23135;51.078;12.108;2023-07-20T00:28:39;14.90;99.90
37242;DHT22;23135;51.078;12.108;2023-07-20T00:31:05;14.90;99.90
37242;DHT22;23135;51.078;12.108;2023-07-20T00:33:30;14.90;99.90
37242;DHT22;23135;51.078;12.108;2023-07-20T00:35:56;14.90;99.90
37242;DHT22;23135;51.078;12.108;2023-07-20T00:38:22;14.90;99.90
37242;DHT22;23135;51.078;12.108;2023-07-20T00:40:48;14.90;99.90
37242;DHT22;23135;51.078;12.108;2023-07-20T00:43:16;14.90;99.90
37242;DHT22;23135;51.078;12.108;2023-07-20T00:45:42;14.90;99.90
37242;DHT22;23135;51.078;12.108;2023-07-20T00:48:08;14.90;99.90
37242;DHT22;23135;51.078;12.108;2023-07-20T00:50:34;14.90;99.90
37242;DHT22;23135;51.078;12.108;2023-07-20T00:53:00;14.80;99.90
37242;DHT22;23135;51.078;12.108;2023-07-20T00:55:29;14.80;99.90
37242;DHT22;23135;51.078;12.108;2023-07-20T00:57:54;14.70;99.90
37242;DHT22;23135;51.078;12.108;2023-07-20T01:00:20;14.70;99.90
37242;DHT22;23135;51.078;12.108;2023-07-20T01:02:46;14.70;99.90
37242;DHT22;23135;51.078;12.108;2023-07-20T01:05:13;14.70;99.90
37242;DHT22;23135;51.078;12.108;2023-07-20T01:07:51;14.70;99.90
37242;DHT22;23135;51.078;12.108;2023-07-20T01:10:29;14.70;99.90
37242;DHT22;23135;51.078;12.108;2023-07-20T01:12:57;14.70;99.90
37242;DHT22;23135;51.078;12.108;2023-07-20T01:15:23;14.70;99.90
37242;DHT22;23135;51.078;12.108;2023-07-20T01:17:49;14.60;99.90
37242;DHT22;23135;51.078;12.108;2023-07-20T01:20:17;14.60;99.90
37242;DHT22;23135;51.078;12.108;2023-07-20T01:26:07;14.50;99.90
37242;DHT22;23135;51.078;12.108;2023-07-20T01:29:10;14.30;99.90
37242;DHT22;23135;51.078;12.108;2023-07-20T01:31:38;14.20;99.90
37242;DHT22;23135;51.078;12.108;2023-07-20T01:34:05;14.10;99.90
37242;DHT22;23135;51.078;12.108;2023-07-20T01:36:36;14.00;99.90
37242;DHT22;23135;51.078;12.108;2023-07-20T01:39:03;13.90;99.90
37242;DHT22;23135;51.078;12.108;2023-07-20T01:41:30;13.90;99.90
37242;DHT22;23135;51.078;12.108;2023-07-20T01:43:59;13.90;99.90
37242;DHT22;23135;51.078;12.108;2023-07-20T01:46:25;13.90;99.90
37242;DHT22;23135;51.078;12.108;2023-07-20T01:48:50;13.90;99.90
37242;DHT22;23135;51.078;12.108;2023-07-20T01:51:16;13.90;99.90
37242;DHT22;23135;51.078;12.108;2023-07-20T01:53:43;13.90;99.90
37242;DHT22;23135;51.078;12.108;2023-07-20T01:56:09;13.80;99.90
37242;DHT22;23135;51.078;12.108;2023-07-20T01:58:34;13.80;99.90
37242;DHT22;23135;51.078;12.108;2023-07-20T02:01:01;13.70;99.90
37242;DHT22;23135;51.078;12.108;2023-07-20T02:03:27;13.70;99.90
37242;DHT22;23135;51.078;12.108;2023-07-20T02:05:52;13.70;99.90
37242;DHT22;23135;51.078;12.108;2023-07-20T02:08:18;13.70;99.90
37242;DHT22;23135;51.078;12.108;2023-07-20T02:10:47;13.60;99.90
37242;DHT22;23135;51.078;12.108;2023-07-20T02:13:13;13.60;99.90
37242;DHT22;23135;51.078;12.108;2023-07-20T02:15:39;13.60;99.90
37242;DHT22;23135;51.078;12.108;2023-07-20T02:18:05;13.60;99.90
37242;DHT22;23135;51.078;12.108;2023-07-20T02:20:31;13.60;99.90
37242;DHT22;23135;51.078;12.108;2023-07-20T02:22:57;13.60;99.90
37242;DHT22;23135;51.078;12.108;2023-07-20T02:25:22;13.50;99.90
37242;DHT22;23135;51.078;12.108;2023-07-20T02:27:48;13.50;99.90
37242;DHT22;23135;51.078;12.108;2023-07-20T02:30:13;13.50;99.90
37242;DHT22;23135;51.078;12.108;2023-07-20T02:32:39;13.50;99.90
37242;DHT22;23135;51.078;12.108;2023-07-20T02:35:05;13.50;99.90
37242;DHT22;23135;51.078;12.108;2023-07-20T02:37:31;13.50;99.90
37242;DHT22;23135;51.078;12.108;2023-07-20T02:39:57;13.50;99.90
37242;DHT22;23135;51.078;12.108;2023-07-20T02:42:23;13.50;99.90
37242;DHT22;23135;51.078;12.108;2023-07-20T02:44:51;13.50;99.90
37242;DHT22;23135;51.078;12.108;2023-07-20T02:47:17;13.50;99.90
37242;DHT22;23135;51.078;12.108;2023-07-20T02:49:42;13.50;99.90
37242;DHT22;23135;51.078;12.108;2023-07-20T02:52:09;13.50;99.90
37242;DHT22;23135;51.078;12.108;2023-07-20T02:54:34;13.50;99.90
37242;DHT22;23135;51.078;12.108;2023-07-20T02:57:00;13.40;99.90
37242;DHT22;23135;51.078;12.108;2023-07-20T02:59:26;13.40;99.90
37242;DHT22;23135;51.078;12.108;2023-07-20T03:01:52;13.40;99.90
37242;DHT22;23135;51.078;12.108;2023-07-20T03:04:19;13.30;99.90
37242;DHT22;23135;51.078;12.108;2023-07-20T03:06:45;13.30;99.90
37242;DHT22;23135;51.078;12.108;2023-07-20T03:09:10;13.30;99.90
37242;DHT22;23135;51.078;12.108;2023-07-20T03:11:36;13.30;99.90
37242;DHT22;23135;51.078;12.108;2023-07-20T03:14:02;13.30;99.90
37242;DHT22;23135;51.078;12.108;2023-07-20T03:16:28;13.20;99.90
37242;DHT22;23135;51.078;12.108;2023-07-20T03:18:53;13.20;99.90
37242;DHT22;23135;51.078;12.108;2023-07-20T03:21:19;13.20;99.90
37242;DHT22;23135;51.078;12.108;2023-07-20T03:23:44;13.30;99.90
37242;DHT22;23135;51.078;12.108;2023-07-20T03:26:10;13.30;99.90
37242;DHT22;23135;51.078;12.108;2023-07-20T03:28:39;13.20;99.90
37242;DHT22;23135;51.078;12.108;2023-07-20T03:31:05;13.30;99.90
37242;DHT22;23135;51.078;12.108;2023-07-20T03:33:31;13.30;99.90
37242;DHT22;23135;51.078;12.108;2023-07-20T03:35:57;13.30;99.90
37242;DHT22;23135;51.078;12.108;2023-07-20T03:38:24;13.30;99.90
37242;DHT22;23135;51.078;12.108;2023-07-20T03:40:57;13.30;99.90
37242;DHT22;23135;51.078;12.108;2023-07-20T03:43:24;13.30;99.90
37242;DHT22;23135;51.078;12.108;2023-07-20T03:45:51;13.30;99.90
37242;DHT22;23135;51.078;12.108;2023-07-20T03:48:18;13.40;99.90
37242;DHT22;23135;51.078;12.108;2023-07-20T03:50:45;13.40;99.90
37242;DHT22;23135;51.078;12.108;2023-07-20T03:53:11;13.50;99.90
37242;DHT22;23135;51.078;12.108;2023-07-20T03:55:37;13.50;99.90
37242;DHT22;23135;51.078;12.108;2023-07-20T03:58:03;13.60;99.90
37242;DHT22;23135;51.078;12.108;2023-07-20T04:00:29;13.60;99.90
37242;DHT22;23135;51.078;12.108;2023-07-20T04:02:54;13.70;99.90
37242;DHT22;23135;51.078;12.108;2023-07-20T04:05:20;13.70;99.90
37242;DHT22;23135;51.078;12.108;2023-07-20T04:07:46;13.80;99.90
37242;DHT22;23135;51.078;12.108;2023-07-20T04:10:12;13.90;99.90
37242;DHT22;23135;51.078;12.108;2023-07-20T04:12:38;14.00;99.90
37242;DHT22;23135;51.078;12.108;2023-07-20T04:15:03;14.10;99.90
37242;DHT22;23135;51.078;12.108;2023-07-20T04:17:29;14.10;99.90
37242;DHT22;23135;51.078;12.108;2023-07-20T04:19:55;14.00;99.90
37242;DHT22;23135;51.078;12.108;2023-07-20T04:22:20;14.00;99.90
37242;DHT22;23135;51.078;12.108;2023-07-20T04:24:47;13.90;99.90
37242;DHT22;23135;51.078;12.108;2023-07-20T04:27:12;13.90;99.90
37242;DHT22;23135;51.078;12.108;2023-07-20T04:29:38;13.90;99.90
37242;DHT22;23135;51.078;12.108;2023-07-20T04:32:04;13.90;99.90
37242;DHT22;23135;51.078;12.108;2023-07-20T04:34:30;13.80;99.90
37242;DHT22;23135;51.078;12.108;2023-07-20T04:36:55;13.80;99.90
37242;DHT22;23135;51.078;12.108;2023-07-20T04:39:21;13.80;99.90
37242;DHT22;23135;51.078;12.108;2023-07-20T04:41:46;13.80;99.90
37242;DHT22;23135;51.078;12.108;2023-07-20T04:44:13;13.80;99.90
37242;DHT22;23135;51.078;12.108;2023-07-20T04:46:39;13.80;99.90
37242;DHT22;23135;51.078;12.108;2023-07-20T04:49:06;13.90;99.90
37242;DHT22;23135;51.078;12.108;2023-07-20T04:51:31;14.00;99.90
37242;DHT22;23135;51.078;12.108;2023-07-20T04:53:57;14.10;99.90
37242;DHT22;23135;51.078;12.108;2023-07-20T04:56:24;14.20;99.90
37242;DHT22;23135;51.078;12.108;2023-07-20T04:58:50;14.20;99.90
37242;DHT22;23135;51.078;12.108;2023-07-20T05:01:16;14.30;99.90
37242;DHT22;23135;51.078;12.108;2023-07-20T05:03:41;14.30;99.90
37242;DHT22;23135;51.078;12.108;2023-07-20T05:06:07;14.30;99.90
37242;DHT22;23135;51.078;12.108;2023-07-20T05:08:32;14.30;99.90
37242;DHT22;23135;51.078;12.108;2023-07-20T05:10:59;14.30;99.90
37242;DHT22;23135;51.078;12.108;2023-07-20T05:13:25;14.30;99.90
37242;DHT22;23135;51.078;12.108;2023-07-20T05:15:52;14.40;99.90
37242;DHT22;23135;51.078;12.108;2023-07-20T05:18:18;14.60;99.90
37242;DHT22;23135;51.078;12.108;2023-07-20T05:20:49;14.70;99.90
37242;DHT22;23135;51.078;12.108;2023-07-20T05:23:17;14.80;99.90
37242;DHT22;23135;51.078;12.108;2023-07-20T05:25:43;14.90;99.90
37242;DHT22;23135;51.078;12.108;2023-07-20T05:28:09;15.00;99.90
37242;DHT22;23135;51.078;12.108;2023-07-20T05:30:35;15.00;99.90
37242;DHT22;23135;51.078;12.108;2023-07-20T05:33:01;15.10;99.90
37242;DHT22;23135;51.078;12.108;2023-07-20T05:35:26;15.20;99.90
37242;DHT22;23135;51.078;12.108;2023-07-20T05:37:52;15.20;99.90
37242;DHT22;23135;51.078;12.108;2023-07-20T05:40:18;15.20;99.90
37242;DHT22;23135;51.078;12.108;2023-07-20T05:42:48;15.30;99.90
37242;DHT22;23135;51.078;12.108;2023-07-20T05:45:17;15.40;99.90
37242;DHT22;23135;51.078;12.108;2023-07-20T05:47:43;15.50;99.90
37242;DHT22;23135;51.078;12.108;2023-07-20T05:50:09;15.60;99.90
37242;DHT22;23135;51.078;12.108;2023-07-20T05:52:35;15.70;99.90
37242;DHT22;23135;51.078;12.108;2023-07-20T05:55:01;15.80;99.90
37242;DHT22;23135;51.078;12.108;2023-07-20T05:57:26;16.00;99.90
37242;DHT22;23135;51.078;12.108;2023-07-20T05:59:52;16.10;99.90
37242;DHT22;23135;51.078;12.108;2023-07-20T06:02:17;16.10;99.90
37242;DHT22;23135;51.078;12.108;2023-07-20T06:04:43;16.20;99.90
37242;DHT22;23135;51.078;12.108;2023-07-20T06:07:09;16.20;99.90
37242;DHT22;23135;51.078;12.108;2023-07-20T06:09:35;16.30;99.90
37242;DHT22;23135;51.078;12.108;2023-07-20T06:12:02;16.30;99.90
37242;DHT22;23135;51.078;12.108;2023-07-20T06:14:27;16.40;99.90
37242;DHT22;23135;51.078;12.108;2023-07-20T06:16:53;16.50;99.90
37242;DHT22;23135;51.078;12.108;2023-07-20T06:19:18;16.50;99.90
37242;DHT22;23135;51.078;12.108;2023-07-20T06:21:44;16.70;99.90
37242;DHT22;23135;51.078;12.108;2023-07-20T06:24:10;16.90;99.90
37242;DHT22;23135;51.078;12.108;2023-07-20T06:26:35;17.20;99.90
37242;DHT22;23135;51.078;12.108;2023-07-20T06:29:08;17.30;99.90
37242;DHT22;23135;51.078;12.108;2023-07-20T06:31:35;17.20;99.90
37242;DHT22;23135;51.078;12.108;2023-07-20T06:34:01;17.10;99.90
37242;DHT22;23135;51.078;12.108;2023-07-20T06:36:27;17.20;99.90
37242;DHT22;23135;51.078;12.108;2023-07-20T06:38:53;17.60;99.90
37242;DHT22;23135;51.078;12.108;2023-07-20T06:41:18;18.00;99.90
37242;DHT22;23135;51.078;12.108;2023-07-20T06:43:44;18.10;99.90
37242;DHT22;23135;51.078;12.108;2023-07-20T06:46:10;18.10;99.90
37242;DHT22;23135;51.078;12.108;2023-07-20T06:48:36;18.20;99.90
37242;DHT22;23135;51.078;12.108;2023-07-20T06:51:01;18.20;99.90
37242;DHT22;23135;51.078;12.108;2023-07-20T06:53:28;18.10;99.90
37242;DHT22;23135;51.078;12.108;2023-07-20T06:55:54;18.00;99.90
37242;DHT22;23135;51.078;12.108;2023-07-20T06:58:19;18.00;99.90
37242;DHT22;23135;51.078;12.108;2023-07-20T07:00:47;17.80;99.90
37242;DHT22;23135;51.078;12.108;2023-07-20T07:03:12;17.60;99.90
37242;DHT22;23135;51.078;12.108;2023-07-20T07:05:38;17.60;99.90
37242;DHT22;23135;51.078;12.108;2023-07-20T07:08:07;17.50;99.90
37242;DHT22;23135;51.078;12.108;2023-07-20T07:10:34;17.50;99.90
37242;DHT22;23135;51.078;12.108;2023-07-20T07:13:00;17.50;99.90
37242;DHT22;23135;51.078;12.108;2023-07-20T07:15:26;17.50;99.90
37242;DHT22;23135;51.078;12.108;2023-07-20T07:17:53;17.60;99.90
37242;DHT22;23135;51.078;12.108;2023-07-20T07:20:18;17.60;99.90
37242;DHT22;23135;51.078;12.108;2023-07-20T07:22:44;17.60;99.90
37242;DHT22;23135;51.078;12.108;2023-07-20T07:25:10;17.60;99.90
37242;DHT22;23135;51.078;12.108;2023-07-20T07:27:36;17.60;99.90
37242;DHT22;23135;51.078;12.108;2023-07-20T07:30:03;17.50;99.90
37242;DHT22;23135;51.078;12.108;2023-07-20T07:32:28;17.40;99.90
37242;DHT22;23135;51.078;12.108;2023-07-20T07:34:54;17.50;99.90
37242;DHT22;23135;51.078;12.108;2023-07-20T07:37:20;17.80;99.90
37242;DHT22;23135;51.078;12.108;2023-07-20T07:39:46;18.40;99.90
37242;DHT22;23135;51.078;12.108;2023-07-20T07:42:12;18.80;99.90
37242;DHT22;23135;51.078;12.108;2023-07-20T07:44:38;18.90;99.90
37242;DHT22;23135;51.078;12.108;2023-07-20T07:47:04;19.00;99.90
37242;DHT22;23135;51.078;12.108;2023-07-20T07:49:30;19.30;99.90
37242;DHT22;23135;51.078;12.108;2023-07-20T07:51:56;19.40;99.90
37242;DHT22;23135;51.078;12.108;2023-07-20T07:54:22;19.60;99.90
37242;DHT22;23135;51.078;12.108;2023-07-20T07:56:48;19.80;99.90
37242;DHT22;23135;51.078;12.108;2023-07-20T07:59:13;19.90;99.90
37242;DHT22;23135;51.078;12.108;2023-07-20T08:01:40;20.10;99.90
37242;DHT22;23135;51.078;12.108;2023-07-20T08:04:06;20.30;99.90
37242;DHT22;23135;51.078;12.108;2023-07-20T08:06:31;20.70;99.90
37242;DHT22;23135;51.078;12.108;2023-07-20T08:08:57;20.70;99.90
37242;DHT22;23135;51.078;12.108;2023-07-20T08:11:24;20.40;99.90
37242;DHT22;23135;51.078;12.108;2023-07-20T08:13:49;20.00;99.90
37242;DHT22;23135;51.078;12.108;2023-07-20T08:16:15;19.80;99.90
37242;DHT22;23135;51.078;12.108;2023-07-20T08:18:40;20.10;99.90
37242;DHT22;23135;51.078;12.108;2023-07-20T08:21:06;20.50;99.90
37242;DHT22;23135;51.078;12.108;2023-07-20T08:23:32;20.60;99.90
37242;DHT22;23135;51.078;12.108;2023-07-20T08:25:58;20.60;99.90
37242;DHT22;23135;51.078;12.108;2023-07-20T08:28:23;20.50;99.90
37242;DHT22;23135;51.078;12.108;2023-07-20T08:30:49;20.20;99.90
37242;DHT22;23135;51.078;12.108;2023-07-20T08:33:16;20.00;99.90
37242;DHT22;23135;51.078;12.108;2023-07-20T08:35:43;20.50;99.90
37242;DHT22;23135;51.078;12.108;2023-07-20T08:38:09;20.70;99.90
37242;DHT22;23135;51.078;12.108;2023-07-20T08:40:47;20.50;99.90
37242;DHT22;23135;51.078;12.108;2023-07-20T08:43:14;20.50;99.90
37242;DHT22;23135;51.078;12.108;2023-07-20T08:45:42;20.40;99.90
37242;DHT22;23135;51.078;12.108;2023-07-20T08:48:11;20.30;99.90
37242;DHT22;23135;51.078;12.108;2023-07-20T08:50:38;20.70;99.90
37242;DHT22;23135;51.078;12.108;2023-07-20T08:53:04;21.20;99.90
37242;DHT22;23135;51.078;12.108;2023-07-20T08:55:31;21.50;99.90
37242;DHT22;23135;51.078;12.108;2023-07-20T08:58:00;21.60;99.90
37242;DHT22;23135;51.078;12.108;2023-07-20T09:00:26;21.40;99.90
37242;DHT22;23135;51.078;12.108;2023-07-20T09:02:56;21.70;99.90
37242;DHT22;23135;51.078;12.108;2023-07-20T09:05:23;21.80;99.90
37242;DHT22;23135;51.078;12.108;2023-07-20T09:07:51;22.00;99.90
37242;DHT22;23135;51.078;12.108;2023-07-20T09:10:20;22.10;99.90
37242;DHT22;23135;51.078;12.108;2023-07-20T09:12:46;22.30;99.90
37242;DHT22;23135;51.078;12.108;2023-07-20T09:15:12;22.70;99.90
37242;DHT22;23135;51.078;12.108;2023-07-20T09:17:38;22.90;99.90
37242;DHT22;23135;51.078;12.108;2023-07-20T09:20:05;23.10;99.90
37242;DHT22;23135;51.078;12.108;2023-07-20T09:22:36;22.70;99.90
37242;DHT22;23135;51.078;12.108;2023-07-20T09:25:13;22.20;99.90
37242;DHT22;23135;51.078;12.108;2023-07-20T09:27:45;22.10;99.90
37242;DHT22;23135;51.078;12.108;2023-07-20T09:30:12;22.00;99.90
37242;DHT22;23135;51.078;12.108;2023-07-20T09:32:49;22.20;99.90
37242;DHT22;23135;51.078;12.108;2023-07-20T09:35:20;21.90;99.90
37242;DHT22;23135;51.078;12.108;2023-07-20T09:40:18;21.50;99.90
37242;DHT22;23135;51.078;12.108;2023-07-20T09:42:43;21.30;99.90
37242;DHT22;23135;51.078;12.108;2023-07-20T09:45:09;21.10;99.90
37242;DHT22;23135;51.078;12.108;2023-07-20T09:47:36;21.00;99.90
37242;DHT22;23135;51.078;12.108;2023-07-20T09:50:03;20.80;99.90
37242;DHT22;23135;51.078;12.108;2023-07-20T09:52:29;20.50;99.90
37242;DHT22;23135;51.078;12.108;2023-07-20T09:54:55;20.40;99.90
37242;DHT22;23135;51.078;12.108;2023-07-20T09:57:21;20.20;99.90
37242;DHT22;23135;51.078;12.108;2023-07-20T09:59:47;20.00;99.90
37242;DHT22;23135;51.078;12.108;2023-07-20T10:02:33;20.00;99.90
37242;DHT22;23135;51.078;12.108;2023-07-20T10:05:03;20.20;99.90
37242;DHT22;23135;51.078;12.108;2023-07-20T10:07:30;20.50;99.90
37242;DHT22;23135;51.078;12.108;2023-07-20T10:09:58;21.30;99.90
37242;DHT22;23135;51.078;12.108;2023-07-20T10:12:25;22.10;99.90
37242;DHT22;23135;51.078;12.108;2023-07-20T10:14:59;22.50;99.90
37242;DHT22;23135;51.078;12.108;2023-07-20T10:17:28;22.90;99.90
37242;DHT22;23135;51.078;12.108;2023-07-20T10:19:56;23.10;99.90
37242;DHT22;23135;51.078;12.108;2023-07-20T10:22:26;23.10;99.90
37242;DHT22;23135;51.078;12.108;2023-07-20T10:24:52;22.30;99.90
37242;DHT22;23135;51.078;12.108;2023-07-20T10:27:20;21.40;99.90
37242;DHT22;23135;51.078;12.108;2023-07-20T10:29:47;21.10;99.90
37242;DHT22;23135;51.078;12.108;2023-07-20T10:32:13;20.80;99.90
37242;DHT22;23135;51.078;12.108;2023-07-20T10:34:39;20.30;99.90
37242;DHT22;23135;51.078;12.108;2023-07-20T10:37:05;18.60;99.90
37242;DHT22;23135;51.078;12.108;2023-07-20T10:39:31;17.70;99.90
37242;DHT22;23135;51.078;12.108;2023-07-20T10:42:07;17.00;99.90
37242;DHT22;23135;51.078;12.108;2023-07-20T10:44:33;16.70;99.90
37242;DHT22;23135;51.078;12.108;2023-07-20T10:47:00;16.10;99.90
37242;DHT22;23135;51.078;12.108;2023-07-20T10:49:27;15.80;99.90
37242;DHT22;23135;51.078;12.108;2023-07-20T10:51:58;15.50;99.90
37242;DHT22;23135;51.078;12.108;2023-07-20T10:56:55;15.50;99.90
37242;DHT22;23135;51.078;12.108;2023-07-20T11:01:55;15.60;99.90
37242;DHT22;23135;51.078;12.108;2023-07-20T11:04:41;15.60;99.90
37242;DHT22;23135;51.078;12.108;2023-07-20T11:07:07;15.70;99.90
37242;DHT22;23135;51.078;12.108;2023-07-20T11:09:38;15.70;99.90
37242;DHT22;23135;51.078;12.108;2023-07-20T11:12:11;15.90;99.90
37242;DHT22;23135;51.078;12.108;2023-07-20T11:14:42;16.00;99.90
37242;DHT22;23135;51.078;12.108;2023-07-20T11:17:13;16.10;99.90
37242;DHT22;23135;51.078;12.108;2023-07-20T11:19:39;16.30;99.90
37242;DHT22;23135;51.078;12.108;2023-07-20T11:22:06;16.50;99.90
37242;DHT22;23135;51.078;12.108;2023-07-20T11:24:39;16.80;99.90
37242;DHT22;23135;51.078;12.108;2023-07-20T11:27:05;17.10;99.90
37242;DHT22;23135;51.078;12.108;2023-07-20T11:29:31;17.30;99.90
37242;DHT22;23135;51.078;12.108;2023-07-20T11:31:57;17.50;99.90
37242;DHT22;23135;51.078;12.108;2023-07-20T11:34:24;17.60;99.90
37242;DHT22;23135;51.078;12.108;2023-07-20T11:36:51;17.60;99.90
37242;DHT22;23135;51.078;12.108;2023-07-20T11:39:18;17.60;99.90
37242;DHT22;23135;51.078;12.108;2023-07-20T11:41:51;17.70;99.90
37242;DHT22;23135;51.078;12.108;2023-07-20T11:44:19;17.80;99.90
37242;DHT22;23135;51.078;12.108;2023-07-20T11:46:45;17.70;99.90
37242;DHT22;23135;51.078;12.108;2023-07-20T11:49:11;17.80;99.90
37242;DHT22;23135;51.078;12.108;2023-07-20T11:51:38;17.90;99.90
37242;DHT22;23135;51.078;12.108;2023-07-20T11:54:06;18.00;99.90
37242;DHT22;23135;51.078;12.108;2023-07-20T11:56:32;17.90;99.90
37242;DHT22;23135;51.078;12.108;2023-07-20T11:59:00;18.00;99.90
37242;DHT22;23135;51.078;12.108;2023-07-20T12:01:30;18.00;99.90
37242;DHT22;23135;51.078;12.108;2023-07-20T12:04:02;17.90;99.90
37242;DHT22;23135;51.078;12.108;2023-07-20T12:06:30;17.90;99.90
37242;DHT22;23135;51.078;12.108;2023-07-20T12:08:57;18.00;99.90
37242;DHT22;23135;51.078;12.108;2023-07-20T12:11:38;17.90;99.90
37242;DHT22;23135;51.078;12.108;2023-07-20T12:14:07;18.10;99.90
37242;DHT22;23135;51.078;12.108;2023-07-20T12:16:33;18.40;99.90
37242;DHT22;23135;51.078;12.108;2023-07-20T12:19:02;18.70;99.90
37242;DHT22;23135;51.078;12.108;2023-07-20T12:21:29;19.20;99.90
37242;DHT22;23135;51.078;12.108;2023-07-20T12:23:56;19.50;99.90
37242;DHT22;23135;51.078;12.108;2023-07-20T12:26:24;19.80;99.90
37242;DHT22;23135;51.078;12.108;2023-07-20T12:28:51;20.00;99.90
37242;DHT22;23135;51.078;12.108;2023-07-20T12:31:16;20.20;99.90
37242;DHT22;23135;51.078;12.108;2023-07-20T12:33:42;20.10;99.90
37242;DHT22;23135;51.078;12.108;2023-07-20T12:36:09;19.80;99.90
37242;DHT22;23135;51.078;12.108;2023-07-20T12:38:35;20.10;99.90
37242;DHT22;23135;51.078;12.108;2023-07-20T12:41:01;20.10;99.90
37242;DHT22;23135;51.078;12.108;2023-07-20T12:43:27;19.90;99.90
37242;DHT22;23135;51.078;12.108;2023-07-20T12:45:53;19.60;99.90
37242;DHT22;23135;51.078;12.108;2023-07-20T12:48:19;19.40;99.90
37242;DHT22;23135;51.078;12.108;2023-07-20T12:50:45;19.30;99.90
37242;DHT22;23135;51.078;12.108;2023-07-20T12:53:10;19.30;99.90
37242;DHT22;23135;51.078;12.108;2023-07-20T12:55:37;19.40;99.90
37242;DHT22;23135;51.078;12.108;2023-07-20T12:58:03;19.30;99.90
37242;DHT22;23135;51.078;12.108;2023-07-20T13:00:29;19.30;99.90
37242;DHT22;23135;51.078;12.108;2023-07-20T13:02:55;19.50;99.90
37242;DHT22;23135;51.078;12.108;2023-07-20T13:05:20;19.50;99.90
37242;DHT22;23135;51.078;12.108;2023-07-20T13:07:46;19.50;99.90
37242;DHT22;23135;51.078;12.108;2023-07-20T13:10:12;19.80;99.90
37242;DHT22;23135;51.078;12.108;2023-07-20T13:12:38;20.00;99.90
37242;DHT22;23135;51.078;12.108;2023-07-20T13:15:06;20.00;99.90
37242;DHT22;23135;51.078;12.108;2023-07-20T13:17:33;19.80;99.90
37242;DHT22;23135;51.078;12.108;2023-07-20T13:19:59;19.80;99.90
37242;DHT22;23135;51.078;12.108;2023-07-20T13:22:24;20.00;99.90
37242;DHT22;23135;51.078;12.108;2023-07-20T13:24:50;19.90;99.90
37242;DHT22;23135;51.078;12.108;2023-07-20T13:27:17;19.60;99.90
37242;DHT22;23135;51.078;12.108;2023-07-20T13:29:43;19.70;99.90
37242;DHT22;23135;51.078;12.108;2023-07-20T13:32:09;20.20;99.90
37242;DHT22;23135;51.078;12.108;2023-07-20T13:34:35;20.60;99.90
37242;DHT22;23135;51.078;12.108;2023-07-20T13:37:01;20.90;99.90
37242;DHT22;23135;51.078;12.108;2023-07-20T13:39:27;20.50;99.90
37242;DHT22;23135;51.078;12.108;2023-07-20T13:41:53;20.40;99.90
37242;DHT22;23135;51.078;12.108;2023-07-20T13:44:20;20.60;99.90
37242;DHT22;23135;51.078;12.108;2023-07-20T13:46:47;20.40;99.90
37242;DHT22;23135;51.078;12.108;2023-07-20T13:49:13;20.40;99.90
37242;DHT22;23135;51.078;12.108;2023-07-20T13:51:39;20.50;99.90
37242;DHT22;23135;51.078;12.108;2023-07-20T13:54:06;21.20;99.90
37242;DHT22;23135;51.078;12.108;2023-07-20T13:56:31;21.50;99.90
37242;DHT22;23135;51.078;12.108;2023-07-20T13:58:57;21.50;99.90
37242;DHT22;23135;51.078;12.108;2023-07-20T14:01:23;21.00;99.90
37242;DHT22;23135;51.078;12.108;2023-07-20T14:03:50;20.70;99.90
37242;DHT22;23135;51.078;12.108;2023-07-20T14:06:16;21.00;99.90
37242;DHT22;23135;51.078;12.108;2023-07-20T14:08:42;21.00;99.90
37242;DHT22;23135;51.078;12.108;2023-07-20T14:11:07;21.00;99.90
37242;DHT22;23135;51.078;12.108;2023-07-20T14:13:33;21.40;99.90
37242;DHT22;23135;51.078;12.108;2023-07-20T14:15:58;21.50;99.90
37242;DHT22;23135;51.078;12.108;2023-07-20T14:18:24;21.70;99.90
37242;DHT22;23135;51.078;12.108;2023-07-20T14:20:50;22.00;99.90
37242;DHT22;23135;51.078;12.108;2023-07-20T14:23:15;21.60;99.90
37242;DHT22;23135;51.078;12.108;2023-07-20T14:25:41;21.50;99.90
37242;DHT22;23135;51.078;12.108;2023-07-20T14:28:07;21.50;99.90
37242;DHT22;23135;51.078;12.108;2023-07-20T14:30:33;21.30;99.90
37242;DHT22;23135;51.078;12.108;2023-07-20T14:33:28;21.30;99.90
37242;DHT22;23135;51.078;12.108;2023-07-20T14:35:54;21.10;99.90
37242;DHT22;23135;51.078;12.108;2023-07-20T14:38:20;21.40;99.90
37242;DHT22;23135;51.078;12.108;2023-07-20T14:40:46;21.70;99.90
37242;DHT22;23135;51.078;12.108;2023-07-20T14:43:12;21.50;99.90
37242;DHT22;23135;51.078;12.108;2023-07-20T14:45:42;21.20;99.90
37242;DHT22;23135;51.078;12.108;2023-07-20T14:48:07;20.90;99.90
37242;DHT22;23135;51.078;12.108;2023-07-20T14:50:34;21.10;99.90
37242;DHT22;23135;51.078;12.108;2023-07-20T14:52:59;21.10;99.90
37242;DHT22;23135;51.078;12.108;2023-07-20T14:55:25;20.90;99.90
37242;DHT22;23135;51.078;12.108;2023-07-20T14:57:51;20.80;99.90
37242;DHT22;23135;51.078;12.108;2023-07-20T15:00:18;20.70;99.90
37242;DHT22;23135;51.078;12.108;2023-07-20T15:02:43;20.80;99.90
37242;DHT22;23135;51.078;12.108;2023-07-20T15:05:10;20.90;99.90
37242;DHT22;23135;51.078;12.108;2023-07-20T15:07:36;20.90;99.90
37242;DHT22;23135;51.078;12.108;2023-07-20T15:10:05;20.90;99.90
37242;DHT22;23135;51.078;12.108;2023-07-20T15:12:31;21.00;99.90
37242;DHT22;23135;51.078;12.108;2023-07-20T15:15:11;21.10;99.90
37242;DHT22;23135;51.078;12.108;2023-07-20T15:17:38;21.20;99.90
37242;DHT22;23135;51.078;12.108;2023-07-20T15:20:05;21.20;99.90
37242;DHT22;23135;51.078;12.108;2023-07-20T15:22:34;21.00;99.90
37242;DHT22;23135;51.078;12.108;2023-07-20T15:25:03;20.90;99.90